createdAt,value
2018-12-30T00:02:17.654Z,59.00
2018-12-30T00:04:45.005Z,65.17
2018-12-30T00:07:12.857Z,70.13
2018-12-30T00:09:40.727Z,70.53
2018-12-30T00:12:07.957Z,69.37
2018-12-30T00:14:35.281Z,65.77
2018-12-30T00:17:02.633Z,56.33
2018-12-30T00:19:29.953Z,72.27
2018-12-30T00:21:57.332Z,70.97
2018-12-30T00:24:25.063Z,74.77
2018-12-30T00:26:52.428Z,62.27
2018-12-30T00:29:20.049Z,66.90
2018-12-30T00:31:47.615Z,69.47
2018-12-30T00:34:15.264Z,65.13
2018-12-30T00:36:42.949Z,66.07
2018-12-30T00:39:10.584Z,69.13
2018-12-30T00:41:37.940Z,67.10
2018-12-30T00:44:05.171Z,70.60
2018-12-30T00:46:33.893Z,67.00
2018-12-30T00:49:01.244Z,66.50
2018-12-30T00:51:28.607Z,65.23
2018-12-30T00:53:56.245Z,66.33
2018-12-30T00:56:23.917Z,81.37
2018-12-30T00:58:51.289Z,63.93
2018-12-30T01:01:18.625Z,60.70
2018-12-30T01:03:47.090Z,65.77
2018-12-30T01:06:14.509Z,70.30
2018-12-30T01:08:41.841Z,67.53
2018-12-30T01:11:09.197Z,70.23
2018-12-30T01:13:36.525Z,62.50
2018-12-30T01:16:03.889Z,66.50
2018-12-30T01:18:31.537Z,69.23
2018-12-30T01:20:58.884Z,64.23
2018-12-30T01:23:26.228Z,65.90
2018-12-30T01:25:53.795Z,59.13
2018-12-30T01:28:21.121Z,66.97
2018-12-30T01:30:48.817Z,65.73
2018-12-30T01:33:16.133Z,56.30
2018-12-30T01:35:43.489Z,69.47
2018-12-30T01:38:11.073Z,60.73
2018-12-30T01:40:38.629Z,63.77
2018-12-30T01:43:05.957Z,68.57
2018-12-30T01:45:33.304Z,55.30
2018-12-30T01:48:00.633Z,64.50
2018-12-30T01:50:28.266Z,63.07
2018-12-30T01:52:55.617Z,64.57
2018-12-30T01:55:23.052Z,61.90
2018-12-30T01:57:50.649Z,69.23
2018-12-30T02:00:17.982Z,61.77
2018-12-30T02:02:45.649Z,55.50
2018-12-30T02:05:17.310Z,64.80
2018-12-30T02:07:44.645Z,64.10
2018-12-30T02:10:11.973Z,61.63
2018-12-30T02:12:39.312Z,65.77
2018-12-30T02:15:06.641Z,64.47
2018-12-30T02:17:33.993Z,64.37
2018-12-30T02:20:01.235Z,63.40
2018-12-30T02:22:28.993Z,62.87
2018-12-30T02:24:56.224Z,63.03
2018-12-30T02:27:23.667Z,64.93
2018-12-30T02:29:50.993Z,62.17
2018-12-30T02:32:18.353Z,64.70
2018-12-30T02:34:45.686Z,62.20
2018-12-30T02:37:13.137Z,66.20
2018-12-30T02:39:40.460Z,60.87
2018-12-30T02:42:07.717Z,60.40
2018-12-30T02:44:35.056Z,62.93
2018-12-30T02:47:02.416Z,59.67
2018-12-30T02:49:30.077Z,60.57
2018-12-30T02:51:57.646Z,63.03
2018-12-30T02:54:24.976Z,63.17
2018-12-30T02:56:52.343Z,61.40
2018-12-30T02:59:20.019Z,58.70
2018-12-30T03:01:47.376Z,61.97
2018-12-30T03:04:14.911Z,65.60
2018-12-30T03:06:42.274Z,72.03
2018-12-30T03:09:09.507Z,64.47
2018-12-30T03:11:37.196Z,60.87
2018-12-30T03:14:04.453Z,58.73
2018-12-30T03:16:32.413Z,61.77
2018-12-30T03:18:59.669Z,63.40
2018-12-30T03:21:27.318Z,60.27
2018-12-30T03:23:54.668Z,59.67
2018-12-30T03:26:21.898Z,63.10
2018-12-30T03:28:49.801Z,63.20
2018-12-30T03:31:17.029Z,60.83
2018-12-30T03:33:44.614Z,57.30
2018-12-30T03:36:11.853Z,53.93
2018-12-30T03:38:39.131Z,55.40
2018-12-30T03:41:06.353Z,60.00
2018-12-30T03:43:33.610Z,64.67
2018-12-30T03:46:00.829Z,61.70
2018-12-30T03:48:28.085Z,61.67
2018-12-30T03:50:55.596Z,65.90
2018-12-30T03:53:22.847Z,63.77
2018-12-30T03:55:50.078Z,56.13
2018-12-30T03:58:17.641Z,59.13
2018-12-30T04:00:44.865Z,62.83
2018-12-30T04:03:12.478Z,58.00
2018-12-30T04:05:39.701Z,56.57
2018-12-30T04:08:06.956Z,55.93
2018-12-30T04:10:34.517Z,59.20
2018-12-30T04:13:01.766Z,58.17
2018-12-30T04:15:28.993Z,62.27
2018-12-30T04:17:56.260Z,60.37
2018-12-30T04:20:23.486Z,58.07
2018-12-30T04:22:51.082Z,55.27
2018-12-30T04:25:18.313Z,59.97
2018-12-30T04:27:45.542Z,61.07
2018-12-30T04:30:13.080Z,61.50
2018-12-30T04:32:40.591Z,60.87
2018-12-30T04:35:14.657Z,56.63
2018-12-30T04:38:27.362Z,60.73
2018-12-30T04:41:11.229Z,59.50
2018-12-30T04:43:50.876Z,61.73
2018-12-30T04:46:44.015Z,62.70
2018-12-30T04:49:20.371Z,59.23
2018-12-30T04:52:44.689Z,51.37
2018-12-30T04:54:25.605Z,49.43
2018-12-30T04:56:52.834Z,57.37
2018-12-30T04:59:20.513Z,58.30
2018-12-30T05:01:47.749Z,53.33
2018-12-30T05:04:15.002Z,57.23
2018-12-30T05:06:42.550Z,61.97
2018-12-30T05:09:10.145Z,52.20
2018-12-30T05:11:37.393Z,56.43
2018-12-30T05:14:05.245Z,50.30
2018-12-30T05:16:32.902Z,50.40
2018-12-30T05:19:00.236Z,53.77
2018-12-30T05:21:27.810Z,50.23
2018-12-30T05:23:55.069Z,50.87
2018-12-30T05:26:22.294Z,56.17
2018-12-30T05:28:49.551Z,54.53
2018-12-30T05:31:17.121Z,58.87
2018-12-30T05:33:44.998Z,54.37
2018-12-30T05:36:12.227Z,57.67
2018-12-30T05:38:39.829Z,59.23
2018-12-30T05:41:07.322Z,58.13
2018-12-30T05:43:34.684Z,58.67
2018-12-30T05:46:02.281Z,63.50
2018-12-30T05:48:29.505Z,62.87
2018-12-30T05:50:56.761Z,64.43
2018-12-30T05:53:24.197Z,60.17
2018-12-30T05:55:51.445Z,55.10
2018-12-30T05:58:19.069Z,61.33
2018-12-30T06:00:46.334Z,59.53
2018-12-30T06:03:13.561Z,59.00
2018-12-30T06:05:41.029Z,58.63
2018-12-30T06:08:08.256Z,57.00
2018-12-30T06:10:35.481Z,55.87
2018-12-30T06:13:03.304Z,53.47
2018-12-30T06:15:30.557Z,62.57
2018-12-30T06:17:58.088Z,61.20
2018-12-30T06:20:25.657Z,51.83
2018-12-30T06:22:53.536Z,52.60
2018-12-30T06:25:21.073Z,56.50
2018-12-30T06:27:48.300Z,54.87
2018-12-30T06:30:15.569Z,51.83
2018-12-30T06:32:42.808Z,57.70
2018-12-30T06:35:10.065Z,57.87
2018-12-30T06:37:37.628Z,53.77
2018-12-30T06:40:11.298Z,58.33
2018-12-30T06:42:34.454Z,55.23
2018-12-30T06:45:01.713Z,54.83
2018-12-30T06:47:28.944Z,54.13
2018-12-30T06:49:56.288Z,52.37
2018-12-30T06:52:23.524Z,59.13
2018-12-30T06:54:50.961Z,51.60
2018-12-30T06:57:18.189Z,47.90
2018-12-30T06:59:45.972Z,50.90
2018-12-30T07:02:13.536Z,50.43
2018-12-30T07:04:40.788Z,52.33
2018-12-30T07:07:08.009Z,48.53
2018-12-30T07:09:35.241Z,49.63
2018-12-30T07:12:02.491Z,54.27
2018-12-30T07:14:29.707Z,48.97
2018-12-30T07:16:56.970Z,48.60
2018-12-30T07:19:24.521Z,52.67
2018-12-30T07:21:51.780Z,55.70
2018-12-30T07:24:19.325Z,52.53
2018-12-30T07:26:46.581Z,48.10
2018-12-30T07:29:13.912Z,52.60
2018-12-30T07:31:41.580Z,52.70
2018-12-30T07:34:08.813Z,49.37
2018-12-30T07:36:36.710Z,45.70
2018-12-30T07:39:05.549Z,44.07
2018-12-30T07:41:32.825Z,48.97
2018-12-30T07:44:00.388Z,50.83
2018-12-30T07:46:27.656Z,48.00
2018-12-30T07:48:54.880Z,54.93
2018-12-30T07:51:22.169Z,49.67
2018-12-30T07:53:49.601Z,54.33
2018-12-30T07:56:16.861Z,46.27
2018-12-30T07:58:44.093Z,47.83
2018-12-30T08:01:11.709Z,49.23
2018-12-30T08:03:38.933Z,44.67
2018-12-30T08:06:06.182Z,44.70
2018-12-30T08:08:33.408Z,47.40
2018-12-30T08:11:00.680Z,45.47
2018-12-30T08:13:28.252Z,44.10
2018-12-30T08:15:55.797Z,47.07
2018-12-30T08:18:23.022Z,43.60
2018-12-30T08:20:50.293Z,43.97
2018-12-30T08:23:21.420Z,50.60
2018-12-30T08:25:46.976Z,44.73
2018-12-30T08:28:14.814Z,42.40
2018-12-30T08:30:42.365Z,41.83
2018-12-30T08:33:09.942Z,41.00
2018-12-30T08:35:37.179Z,45.43
2018-12-30T08:38:04.544Z,45.03
2018-12-30T08:40:31.801Z,41.23
2018-12-30T08:42:59.354Z,39.47
2018-12-30T08:45:26.937Z,40.53
2018-12-30T08:47:54.201Z,41.13
2018-12-30T08:50:21.526Z,42.40
2018-12-30T08:52:49.081Z,44.20
2018-12-30T08:55:16.325Z,41.17
2018-12-30T08:57:43.593Z,37.50
2018-12-30T09:00:11.145Z,39.33
2018-12-30T09:02:38.422Z,31.10
2018-12-30T09:05:05.983Z,33.57
2018-12-30T09:07:33.558Z,33.70
2018-12-30T09:10:00.894Z,34.00
2018-12-30T09:12:28.149Z,32.57
2018-12-30T09:14:55.677Z,32.77
2018-12-30T09:17:23.013Z,34.67
2018-12-30T09:19:50.248Z,35.83
2018-12-30T09:22:17.397Z,29.47
2018-12-30T09:24:44.988Z,28.03
2018-12-30T09:27:12.649Z,28.07
2018-12-30T09:29:39.864Z,31.17
2018-12-30T09:32:07.146Z,26.87
2018-12-30T09:34:34.553Z,33.30
2018-12-30T09:37:01.816Z,37.53
2018-12-30T09:39:29.318Z,30.50
2018-12-30T09:41:56.684Z,30.93
2018-12-30T09:44:24.145Z,33.07
2018-12-30T09:46:51.392Z,31.23
2018-12-30T09:49:18.528Z,32.67
2018-12-30T09:51:46.109Z,33.97
2018-12-30T09:54:13.344Z,33.63
2018-12-30T09:56:40.601Z,29.53
2018-12-30T09:59:07.820Z,32.60
2018-12-30T10:01:35.406Z,33.60
2018-12-30T10:04:02.673Z,34.67
2018-12-30T10:06:31.526Z,30.40
2018-12-30T10:09:00.917Z,31.47
2018-12-30T10:11:28.136Z,29.17
2018-12-30T10:13:56.092Z,31.73
2018-12-30T10:16:23.653Z,32.50
2018-12-30T10:18:51.227Z,32.77
2018-12-30T10:21:18.457Z,30.63
2018-12-30T10:23:52.750Z,31.20
2018-12-30T10:26:15.144Z,32.10
2018-12-30T10:28:42.725Z,31.10
2018-12-30T10:31:10.313Z,36.50
2018-12-30T10:33:37.875Z,33.90
2018-12-30T10:36:05.105Z,34.63
2018-12-30T10:38:32.470Z,32.50
2018-12-30T10:40:59.761Z,34.27
2018-12-30T10:43:27.014Z,34.27
2018-12-30T10:45:54.336Z,32.17
2018-12-30T10:48:21.605Z,29.73
2018-12-30T10:50:48.836Z,29.87
2018-12-30T10:53:16.392Z,37.43
2018-12-30T10:55:45.727Z,32.63
2018-12-30T10:58:13.102Z,35.93
2018-12-30T11:00:40.632Z,31.80
2018-12-30T11:03:08.057Z,32.17
2018-12-30T11:05:35.441Z,33.43
2018-12-30T11:08:03.085Z,30.37
2018-12-30T11:10:30.210Z,31.90
2018-12-30T11:12:57.483Z,36.43
2018-12-30T11:15:25.141Z,36.50
2018-12-30T11:17:52.724Z,34.43
2018-12-30T11:20:19.945Z,42.73
2018-12-30T11:22:47.217Z,39.77
2018-12-30T11:25:14.451Z,40.17
2018-12-30T11:27:41.709Z,35.43
2018-12-30T11:30:08.945Z,34.17
2018-12-30T11:32:36.628Z,37.47
2018-12-30T11:35:04.241Z,31.73
2018-12-30T11:37:31.537Z,31.53
2018-12-30T11:39:58.778Z,31.27
2018-12-30T11:42:26.449Z,28.97
2018-12-30T11:44:53.742Z,33.53
2018-12-30T11:47:21.258Z,32.00
2018-12-30T11:49:48.834Z,28.10
2018-12-30T11:52:16.069Z,31.20
2018-12-30T11:54:43.789Z,30.37
2018-12-30T11:57:11.121Z,30.90
2018-12-30T11:59:38.385Z,32.03
2018-12-30T12:02:05.893Z,28.63
2018-12-30T12:04:33.472Z,30.50
2018-12-30T12:07:00.707Z,29.57
2018-12-30T12:09:27.969Z,31.00
2018-12-30T12:11:55.201Z,34.73
2018-12-30T12:14:22.475Z,29.93
2018-12-30T12:16:50.021Z,28.13
2018-12-30T12:19:17.592Z,28.97
2018-12-30T12:21:44.821Z,29.90
2018-12-30T12:24:12.392Z,28.53
2018-12-30T12:26:39.637Z,26.83
2018-12-30T12:29:07.009Z,29.50
2018-12-30T12:31:34.334Z,29.63
2018-12-30T12:34:01.909Z,30.40
2018-12-30T12:36:29.175Z,29.17
2018-12-30T12:38:56.721Z,29.03
2018-12-30T12:41:24.077Z,27.20
2018-12-30T12:43:51.636Z,33.87
2018-12-30T12:46:18.765Z,32.03
2018-12-30T12:48:46.038Z,33.00
2018-12-30T12:51:13.260Z,31.07
2018-12-30T12:53:40.529Z,26.60
2018-12-30T12:56:07.761Z,27.93
2018-12-30T12:58:35.017Z,25.67
2018-12-30T13:01:02.347Z,30.07
2018-12-30T13:03:29.580Z,27.37
2018-12-30T13:05:56.845Z,33.13
2018-12-30T13:08:24.359Z,30.80
2018-12-30T13:10:51.916Z,35.83
2018-12-30T13:13:19.459Z,30.37
2018-12-30T13:15:46.729Z,27.07
2018-12-30T13:18:13.955Z,26.93
2018-12-30T13:20:41.234Z,31.97
2018-12-30T13:23:08.796Z,38.60
2018-12-30T13:25:36.065Z,35.30
2018-12-30T13:28:03.294Z,33.37
2018-12-30T13:30:30.561Z,28.23
2018-12-30T13:32:57.789Z,31.47
2018-12-30T13:35:25.194Z,38.93
2018-12-30T13:37:52.426Z,35.13
2018-12-30T13:40:20.331Z,34.40
2018-12-30T13:42:47.739Z,31.03
2018-12-30T13:45:15.089Z,33.40
2018-12-30T13:47:42.321Z,28.87
2018-12-30T13:50:09.589Z,31.77
2018-12-30T13:52:37.141Z,29.83
2018-12-30T13:55:04.703Z,27.40
2018-12-30T13:57:32.029Z,29.47
2018-12-30T13:59:59.299Z,26.63
2018-12-30T14:02:26.668Z,24.20
2018-12-30T14:04:53.936Z,29.30
2018-12-30T14:07:21.165Z,24.70
2018-12-30T14:09:48.420Z,28.67
2018-12-30T14:12:15.645Z,30.60
2018-12-30T14:14:43.264Z,24.33
2018-12-30T14:17:10.565Z,20.30
2018-12-30T14:19:37.851Z,23.23
2018-12-30T14:22:05.082Z,24.73
2018-12-30T14:24:32.352Z,24.23
2018-12-30T14:27:00.206Z,28.40
2018-12-30T14:29:27.561Z,24.20
2018-12-30T14:31:54.787Z,22.10
2018-12-30T14:34:22.365Z,30.20
2018-12-30T14:36:49.548Z,24.13
2018-12-30T14:39:16.830Z,21.77
2018-12-30T14:41:44.058Z,29.57
2018-12-30T14:44:11.406Z,34.90
2018-12-30T14:46:38.713Z,27.40
2018-12-30T14:49:06.389Z,23.00
2018-12-30T14:51:33.629Z,25.23
2018-12-30T14:54:00.893Z,26.00
2018-12-30T14:56:28.441Z,19.17
2018-12-30T14:58:55.700Z,22.10
2018-12-30T15:01:22.945Z,22.83
2018-12-30T15:03:50.519Z,26.20
2018-12-30T15:06:18.012Z,32.37
2018-12-30T15:08:45.191Z,78.03
2018-12-30T15:11:12.886Z,32.20
2018-12-30T15:13:40.445Z,31.37
2018-12-30T15:16:08.061Z,32.77
2018-12-30T15:18:35.341Z,30.00
2018-12-30T15:21:02.730Z,27.03
2018-12-30T15:23:30.491Z,28.07
2018-12-30T15:25:57.822Z,30.20
2018-12-30T15:28:25.493Z,30.03
2018-12-30T15:30:52.838Z,27.20
2018-12-30T15:33:20.823Z,28.27
2018-12-30T15:35:48.147Z,27.77
2018-12-30T15:38:15.754Z,27.30
2018-12-30T15:40:43.123Z,28.10
2018-12-30T15:43:10.414Z,25.17
2018-12-30T15:45:37.750Z,26.53
2018-12-30T15:48:05.766Z,27.07
2018-12-30T15:50:32.919Z,30.40
2018-12-30T15:53:00.205Z,22.70
2018-12-30T15:55:27.442Z,30.03
2018-12-30T15:57:54.708Z,30.07
2018-12-30T16:00:22.328Z,30.37
2018-12-30T16:02:49.972Z,28.57
2018-12-30T16:05:17.295Z,28.40
2018-12-30T16:07:44.910Z,29.90
2018-12-30T16:10:12.146Z,32.73
2018-12-30T16:12:39.714Z,28.80
2018-12-30T16:15:07.747Z,33.60
2018-12-30T16:17:35.440Z,30.90
2018-12-30T16:20:02.886Z,31.43
2018-12-30T16:22:32.242Z,33.77
2018-12-30T16:24:59.505Z,34.00
2018-12-30T16:27:26.780Z,33.63
2018-12-30T16:29:54.020Z,34.73
2018-12-30T16:32:21.297Z,35.43
2018-12-30T16:34:48.559Z,36.97
2018-12-30T16:37:17.273Z,33.07
2018-12-30T16:39:44.585Z,29.90
2018-12-30T16:42:11.853Z,33.53
2018-12-30T16:44:39.409Z,28.17
2018-12-30T16:47:06.677Z,27.37
2018-12-30T16:49:39.322Z,28.27
2018-12-30T16:52:08.696Z,30.80
2018-12-30T16:54:38.415Z,33.13
2018-12-30T16:57:05.857Z,31.07
2018-12-30T16:59:33.480Z,33.97
2018-12-30T17:02:00.894Z,33.00
2018-12-30T17:04:28.132Z,33.47
2018-12-30T17:06:55.701Z,34.73
2018-12-30T17:09:22.930Z,31.77
2018-12-30T17:11:50.557Z,31.50
2018-12-30T17:14:17.886Z,33.00
2018-12-30T17:16:45.237Z,38.97
2018-12-30T17:19:12.531Z,40.47
2018-12-30T17:21:40.091Z,31.57
2018-12-30T17:24:07.673Z,35.53
2018-12-30T17:26:34.933Z,35.70
2018-12-30T17:29:02.541Z,31.97
2018-12-30T17:31:29.910Z,33.43
2018-12-30T17:33:57.457Z,38.97
2018-12-30T17:36:24.605Z,35.93
2018-12-30T17:38:52.157Z,34.83
2018-12-30T17:41:19.717Z,36.30
2018-12-30T17:43:47.310Z,40.10
2018-12-30T17:46:18.361Z,38.90
2018-12-30T17:48:43.701Z,38.77
2018-12-30T17:51:10.936Z,38.67
2018-12-30T17:53:38.601Z,39.70
2018-12-30T17:56:07.295Z,57.83
2018-12-30T17:58:35.585Z,55.87
2018-12-30T18:01:02.809Z,42.90
2018-12-30T18:03:30.469Z,42.13
2018-12-30T18:05:57.969Z,52.00
2018-12-30T18:08:25.242Z,47.57
2018-12-30T18:10:52.573Z,46.93
2018-12-30T18:13:19.825Z,45.60
2018-12-30T18:15:47.069Z,41.60
2018-12-30T18:18:14.344Z,44.87
2018-12-30T18:20:41.981Z,42.60
2018-12-30T18:23:11.308Z,41.77
2018-12-30T18:25:38.548Z,45.10
2018-12-30T18:28:05.814Z,38.50
2018-12-30T18:30:33.356Z,44.13
2018-12-30T18:33:00.920Z,47.37
2018-12-30T18:35:28.482Z,41.83
2018-12-30T18:37:56.033Z,40.13
2018-12-30T18:40:23.264Z,41.03
2018-12-30T18:42:50.536Z,48.23
2018-12-30T18:45:20.776Z,43.90
2018-12-30T18:47:48.133Z,45.60
2018-12-30T18:50:15.673Z,45.27
2018-12-30T18:52:42.900Z,43.83
2018-12-30T18:55:10.485Z,43.00
2018-12-30T18:57:37.704Z,47.80
2018-12-30T19:00:06.977Z,45.33
2018-12-30T19:02:34.212Z,43.33
2018-12-30T19:05:01.504Z,50.47
2018-12-30T19:07:28.737Z,51.57
2018-12-30T19:09:56.002Z,48.30
2018-12-30T19:12:23.226Z,48.00
2018-12-30T19:14:50.496Z,52.90
2018-12-30T19:17:17.728Z,56.10
2018-12-30T19:19:44.994Z,44.37
2018-12-30T19:22:12.221Z,48.50
2018-12-30T19:24:39.481Z,52.60
2018-12-30T19:27:06.727Z,58.40
2018-12-30T19:29:34.261Z,49.57
2018-12-30T19:32:01.830Z,53.83
2018-12-30T19:34:29.093Z,53.20
2018-12-30T19:36:56.957Z,49.70
2018-12-30T19:39:24.424Z,52.13
2018-12-30T19:41:51.873Z,51.30
2018-12-30T19:44:19.753Z,52.03
2018-12-30T19:46:47.359Z,51.17
2018-12-30T19:49:14.641Z,55.13
2018-12-30T19:51:41.876Z,57.80
2018-12-30T19:54:09.240Z,51.80
2018-12-30T19:56:36.906Z,50.90
2018-12-30T19:59:04.254Z,54.63
2018-12-30T20:01:39.079Z,54.83
2018-12-30T20:04:13.165Z,48.30
2018-12-30T20:06:40.858Z,54.70
2018-12-30T20:09:08.416Z,64.50
2018-12-30T20:11:37.310Z,52.90
2018-12-30T20:14:04.573Z,57.40
2018-12-30T20:16:32.122Z,60.27
2018-12-30T20:18:59.893Z,59.70
2018-12-30T20:21:27.227Z,63.97
2018-12-30T20:23:54.997Z,58.17
2018-12-30T20:26:29.619Z,52.80
2018-12-30T20:28:51.413Z,53.77
2018-12-30T20:31:18.762Z,56.17
2018-12-30T20:33:46.385Z,61.13
2018-12-30T20:36:13.789Z,53.97
2018-12-30T20:38:41.058Z,61.33
2018-12-30T20:41:08.526Z,62.13
2018-12-30T20:43:36.118Z,54.20
2018-12-30T20:46:03.408Z,59.57
2018-12-30T20:48:30.655Z,56.70
2018-12-30T20:50:57.949Z,57.40
2018-12-30T20:53:25.789Z,57.17
2018-12-30T20:55:53.156Z,50.17
2018-12-30T20:58:20.722Z,59.00
2018-12-30T21:00:47.986Z,60.87
2018-12-30T21:03:15.317Z,55.57
2018-12-30T21:05:42.889Z,54.47
2018-12-30T21:08:10.553Z,55.77
2018-12-30T21:10:37.822Z,53.83
2018-12-30T21:13:05.162Z,52.30
2018-12-30T21:15:32.438Z,54.70
2018-12-30T21:17:59.673Z,49.97
2018-12-30T21:20:26.937Z,56.23
2018-12-30T21:22:54.185Z,67.17
2018-12-30T21:25:21.525Z,54.07
2018-12-30T21:27:48.752Z,58.73
2018-12-30T21:30:16.367Z,61.70
2018-12-30T21:32:43.665Z,59.10
2018-12-30T21:35:10.834Z,56.33
2018-12-30T21:37:38.073Z,62.13
2018-12-30T21:40:06.269Z,62.57
2018-12-30T21:42:33.605Z,56.50
2018-12-30T21:45:04.131Z,52.57
2018-12-30T21:47:31.825Z,52.73
2018-12-30T21:49:59.090Z,48.47
2018-12-30T21:52:26.308Z,47.60
2018-12-30T21:54:53.569Z,52.97
2018-12-30T21:57:21.129Z,53.40
2018-12-30T21:59:48.448Z,49.83
2018-12-30T22:02:15.982Z,47.97
2018-12-30T22:04:43.322Z,53.97
2018-12-30T22:07:10.582Z,50.80
2018-12-30T22:09:37.821Z,56.83
2018-12-30T22:12:05.471Z,57.03
2018-12-30T22:14:33.008Z,53.10
2018-12-30T22:17:00.269Z,55.20
2018-12-30T22:19:27.508Z,51.37
2018-12-30T22:21:55.188Z,43.07
2018-12-30T22:24:22.829Z,49.30
2018-12-30T22:26:50.097Z,47.00
2018-12-30T22:29:17.641Z,58.90
2018-12-30T22:31:44.897Z,49.83
2018-12-30T22:34:12.130Z,52.67
2018-12-30T22:36:39.388Z,43.63
2018-12-30T22:39:07.887Z,38.53
2018-12-30T22:41:35.229Z,49.00
2018-12-30T22:44:02.558Z,38.27
2018-12-30T22:46:29.823Z,39.03
2018-12-30T22:48:57.052Z,46.07
2018-12-30T22:51:24.650Z,48.00
2018-12-30T22:53:51.897Z,40.03
2018-12-30T22:56:19.225Z,38.30
2018-12-30T22:58:46.713Z,38.70
2018-12-30T23:01:17.733Z,50.03
2018-12-30T23:03:45.067Z,43.00
2018-12-30T23:06:12.424Z,35.47
2018-12-30T23:08:39.945Z,30.63
2018-12-30T23:11:07.212Z,36.43
2018-12-30T23:13:34.526Z,47.00
2018-12-30T23:16:01.785Z,40.57
2018-12-30T23:18:29.029Z,40.80
2018-12-30T23:20:56.357Z,48.03
2018-12-30T23:23:23.645Z,34.17
2018-12-30T23:25:51.190Z,48.70
2018-12-30T23:28:18.444Z,41.80
2018-12-30T23:30:46.002Z,44.27
2018-12-30T23:33:13.353Z,41.73
2018-12-30T23:35:40.581Z,29.87
2018-12-30T23:38:07.728Z,32.57
2018-12-30T23:40:35.335Z,40.57
2018-12-30T23:43:02.672Z,42.30
2018-12-30T23:45:30.469Z,44.23
2018-12-30T23:47:57.833Z,42.73
2018-12-30T23:50:25.156Z,44.23
2018-12-30T23:52:52.535Z,42.33
2018-12-30T23:55:20.157Z,44.83
2018-12-30T23:57:47.741Z,52.83
